Time;durP1;ratioP1;P1;durP2;ratioP2;P2;SDS_P1;SDS_P2;PMS_P1;PMS_P2;Temp;Humidity;BMP_temperature;BMP_pressure;BME280_temperature;BME280_humidity;BME280_pressure;Samples;Min_cycle;Max_cycle;Signal;HPM_P1;HPM_P2
2023/06/05 00:00:12;;;;;;;11.73;7.70;;;;;;;10.95;100.00;102284.22;5032977;28;20033;-51
2023/06/05 00:02:37;;;;;;;8.30;7.40;;;;;;;11.00;100.00;102307.00;5030908;28;20037;-51
2023/06/05 00:05:03;;;;;;;10.90;7.65;;;;;;;10.89;100.00;102277.25;5031433;28;20037;-51
2023/06/05 00:07:28;;;;;;;8.63;7.40;;;;;;;11.02;100.00;102310.50;5031515;28;20033;-52
2023/06/05 00:09:54;;;;;;;10.02;8.10;;;;;;;11.00;100.00;102306.13;5033546;28;20055;-48
2023/06/05 00:12:19;;;;;;;11.27;7.75;;;;;;;10.83;100.00;102293.13;5030355;28;20032;-50
2023/06/05 00:14:44;;;;;;;10.23;8.85;;;;;;;10.48;100.00;102238.19;5031896;28;20110;-50
2023/06/05 00:17:10;;;;;;;11.57;8.60;;;;;;;10.60;100.00;102269.66;5038432;28;20059;-50
2023/06/05 00:19:35;;;;;;;9.80;7.78;;;;;;;10.84;100.00;102300.13;5038891;28;20041;-51
2023/06/05 00:22:01;;;;;;;10.57;8.32;;;;;;;10.23;100.00;102201.59;5046036;28;20391;-48
2023/06/05 00:24:26;;;;;;;11.70;8.70;;;;;;;10.81;100.00;102315.09;5033455;28;20043;-52
2023/06/05 00:26:51;;;;;;;9.85;7.82;;;;;;;10.72;100.00;102310.78;5029125;28;20381;-51
2023/06/05 00:29:17;;;;;;;10.35;9.10;;;;;;;10.74;100.00;102325.69;5030765;28;20476;-52
2023/06/05 00:31:43;;;;;;;11.15;8.65;;;;;;;10.71;100.00;102315.19;5015111;28;20040;-48
2023/06/05 00:34:09;;;;;;;11.85;8.88;;;;;;;10.69;100.00;102309.06;5047557;28;20040;-53
2023/06/05 00:36:36;;;;;;;10.70;8.23;;;;;;;10.69;100.00;102309.06;5052393;28;20041;-50
2023/06/05 00:39:02;;;;;;;9.07;8.27;;;;;;;10.54;100.00;102282.88;5044261;28;20037;-51
2023/06/05 00:41:27;;;;;;;10.95;9.60;;;;;;;10.22;100.00;102226.13;5047710;28;20041;-50
2023/06/05 00:43:53;;;;;;;11.77;9.35;;;;;;;10.64;100.00;102300.34;5051170;28;20488;-51
2023/06/05 00:46:18;;;;;;;15.13;9.50;;;;;;;10.31;100.00;102261.16;5043045;28;20044;-54
2023/06/05 00:48:46;;;;;;;11.70;9.13;;;;;;;10.22;100.00;102229.66;5033868;28;20060;-51
2023/06/05 00:51:14;;;;;;;12.48;10.70;;;;;;;10.36;100.00;102258.50;5034274;28;20041;-48
2023/06/05 00:53:40;;;;;;;12.00;9.60;;;;;;;10.16;100.00;102224.44;5017369;28;20119;-50
2023/06/05 00:56:05;;;;;;;14.77;10.52;;;;;;;10.58;100.00;102305.66;5050693;28;20193;-50
2023/06/05 00:58:30;;;;;;;11.52;10.23;;;;;;;10.56;100.00;102302.19;5041907;28;20041;-50
2023/06/05 01:00:57;;;;;;;14.27;10.20;;;;;;;10.51;100.00;102316.25;5014360;28;20500;-52
2023/06/05 01:03:23;;;;;;;12.13;9.43;;;;;;;10.53;100.00;102299.59;5032130;28;20480;-51
2023/06/05 01:05:49;;;;;;;11.80;10.57;;;;;;;10.51;100.00;102301.34;5033664;28;20029;-50
2023/06/05 01:08:16;;;;;;;11.88;10.55;;;;;;;9.59;100.00;102154.75;5043873;28;20041;-50
2023/06/05 01:10:43;;;;;;;11.45;10.25;;;;;;;10.39;100.00;102276.91;5021373;28;20400;-52
2023/06/05 01:13:34;;;;;;;15.02;10.30;;;;;;;10.49;100.00;102300.47;5032115;28;20044;-51
2023/06/05 01:16:04;;;;;;;11.60;9.13;;;;;;;9.98;100.00;102214.06;5034224;28;20048;-51
2023/06/05 01:18:30;;;;;;;12.60;10.52;;;;;;;10.11;100.00;102236.72;5034775;28;20033;-53
2023/06/05 01:21:01;;;;;;;14.20;10.65;;;;;;;10.42;100.00;102295.31;5039776;28;20033;-52
2023/06/05 01:23:29;;;;;;;14.55;11.23;;;;;;;10.40;100.00;102316.34;5023447;28;20047;-51
2023/06/05 01:25:57;;;;;;;12.68;10.77;;;;;;;9.86;100.00;102203.63;5052277;28;20106;-52
2023/06/05 01:28:25;;;;;;;11.38;10.05;;;;;;;10.00;100.00;102225.44;5028706;28;20051;-53
2023/06/05 01:31:01;;;;;;;13.80;10.45;;;;;;;10.34;100.00;102286.56;5008381;28;20457;-52
2023/06/05 01:33:41;;;;;;;12.93;11.52;;;;;;;10.32;100.00;102305.03;5014800;28;20492;-50
2023/06/05 01:36:08;;;;;;;13.55;10.40;;;;;;;10.26;100.00;102291.91;5010217;28;20030;-53
2023/06/05 01:38:37;;;;;;;14.40;11.30;;;;;;;10.26;100.00;102283.13;5016215;28;20395;-51
2023/06/05 01:41:03;;;;;;;14.82;11.05;;;;;;;10.24;100.00;102280.53;5043359;28;20120;-50
2023/06/05 01:43:29;;;;;;;13.63;11.48;;;;;;;9.83;100.00;102219.44;5053164;28;20479;-49
2023/06/05 01:45:56;;;;;;;14.25;12.00;;;;;;;9.74;100.00;102201.97;5020384;28;20045;-50
2023/06/05 01:48:23;;;;;;;13.77;11.98;;;;;;;10.21;100.00;102293.72;5036435;28;20091;-51
2023/06/05 01:50:49;;;;;;;17.67;12.30;;;;;;;9.75;100.00;102206.31;5042965;28;20430;-49
2023/06/05 01:53:16;;;;;;;15.25;11.63;;;;;;;9.75;100.00;102200.22;5038232;28;20083;-52
2023/06/05 01:55:42;;;;;;;14.23;11.40;;;;;;;10.15;100.00;102276.22;5050970;28;20071;-52
2023/06/05 01:58:07;;;;;;;14.20;12.55;;;;;;;9.88;100.00;102246.56;5052381;28;20053;-52
2023/06/05 02:00:35;;;;;;;15.60;12.18;;;;;;;10.12;100.00;102275.31;5039297;28;20033;-51
2023/06/05 02:03:00;;;;;;;15.70;12.05;;;;;;;9.65;100.00;102199.41;5017651;28;20033;-52
2023/06/05 02:05:29;;;;;;;14.10;12.43;;;;;;;10.09;100.00;102268.34;5019520;28;20412;-51
2023/06/05 02:07:58;;;;;;;12.32;10.95;;;;;;;10.08;100.00;102268.31;5049761;28;20045;-49
2023/06/05 02:10:23;;;;;;;16.48;11.82;;;;;;;9.99;100.00;102252.63;5036721;28;20079;-53
2023/06/05 02:12:49;;;;;;;15.13;11.90;;;;;;;10.01;100.00;102280.66;5033863;28;20041;-52
2023/06/05 02:15:14;;;;;;;12.25;11.00;;;;;;;10.05;100.00;102278.88;5040789;28;20171;-52
2023/06/05 02:17:53;;;;;;;16.15;11.98;;;;;;;9.58;100.00;102202.94;5034325;28;20454;-53
2023/06/05 02:20:21;;;;;;;15.52;12.52;;;;;;;9.90;100.00;102250.94;5034101;28;20064;-50
2023/06/05 02:22:49;;;;;;;15.25;12.48;;;;;;;9.57;100.00;102193.34;5034351;28;20033;-51
2023/06/05 02:25:15;;;;;;;13.75;12.18;;;;;;;9.61;100.00;102205.56;5031728;28;20033;-51
2023/06/05 02:27:41;;;;;;;16.50;11.50;;;;;;;9.96;100.00;102265.78;5034719;28;20396;-54
2023/06/05 02:30:07;;;;;;;13.45;12.02;;;;;;;9.95;100.00;102267.53;5034733;28;20120;-52
2023/06/05 02:32:32;;;;;;;15.40;12.10;;;;;;;9.92;100.00;102259.69;5035128;28;20060;-53
2023/06/05 02:34:58;;;;;;;16.42;12.93;;;;;;;9.39;100.00;102169.78;5034790;28;20040;-52
2023/06/05 02:37:25;;;;;;;13.52;11.60;;;;;;;9.53;100.00;102199.47;5033476;28;20033;-54
2023/06/05 02:39:50;;;;;;;15.75;12.38;;;;;;;9.76;100.00;102244.00;5033789;28;20112;-50
2023/06/05 02:42:16;;;;;;;19.92;12.15;;;;;;;9.14;100.00;102134.91;5033549;28;20120;-53
2023/06/05 02:44:42;;;;;;;14.57;12.45;;;;;;;9.41;100.00;102195.19;5041588;28;20033;-51
2023/06/05 02:47:07;;;;;;;16.67;12.45;;;;;;;9.84;100.00;102274.63;5031896;28;20101;-51
2023/06/05 02:49:32;;;;;;;16.10;12.68;;;;;;;9.85;100.00;102267.63;5028052;28;20084;-49
2023/06/05 02:51:58;;;;;;;17.70;13.10;;;;;;;9.32;100.00;102179.47;5033520;28;20080;-52
2023/06/05 02:54:27;;;;;;;22.65;12.95;;;;;;;9.78;100.00;102269.41;5016478;28;20044;-52
2023/06/05 02:56:53;;;;;;;19.02;13.60;;;;;;;9.82;100.00;102262.38;5016580;28;20473;-50
2023/06/05 02:59:18;;;;;;;19.33;13.85;;;;;;;9.42;100.00;102190.81;5032813;28;20107;-51
2023/06/05 03:01:47;;;;;;;15.82;13.32;;;;;;;9.76;100.00;102258.03;5016299;28;20489;-51
2023/06/05 03:04:12;;;;;;;16.52;13.05;;;;;;;9.27;100.00;102178.63;5034387;28;20041;-49
2023/06/05 03:06:38;;;;;;;17.05;13.20;;;;;;;9.54;100.00;102220.47;5014437;28;20405;-51
2023/06/05 03:09:03;;;;;;;17.70;13.90;;;;;;;9.75;100.00;102258.91;5028329;28;20044;-49
2023/06/05 03:11:29;;;;;;;17.30;14.07;;;;;;;9.74;100.00;102257.19;5016901;28;20049;-47
2023/06/05 03:13:55;;;;;;;16.58;13.68;;;;;;;9.30;100.00;102182.97;5016480;28;20112;-50
2023/06/05 03:16:22;;;;;;;16.33;13.38;;;;;;;9.71;100.00;102256.31;5009351;28;20033;-51
2023/06/05 03:18:48;;;;;;;16.67;14.05;;;;;;;9.71;100.00;102251.06;5013779;28;20037;-49
2023/06/05 03:21:13;;;;;;;18.17;14.10;;;;;;;9.27;100.00;102176.00;5014090;28;20057;-48
2023/06/05 03:23:39;;;;;;;18.05;14.10;;;;;;;9.67;100.00;102242.31;5027642;28;20092;-51
2023/06/05 03:26:04;;;;;;;16.55;13.52;;;;;;;9.25;100.00;102177.75;5011784;28;20034;-48
2023/06/05 03:28:33;;;;;;;15.88;13.55;;;;;;;9.65;100.00;102243.22;5010088;28;20496;-50
2023/06/05 03:30:58;;;;;;;19.35;13.77;;;;;;;9.58;100.00;102232.75;5013115;28;20075;-54
2023/06/05 03:33:24;;;;;;;17.20;14.20;;;;;;;9.69;100.00;102251.06;5012557;28;20352;-52
2023/06/05 03:35:49;;;;;;;16.83;13.00;;;;;;;9.21;100.00;102162.00;5013099;28;20046;-51
2023/06/05 03:38:15;;;;;;;20.20;13.80;;;;;;;9.28;100.00;102176.88;5012640;28;20413;-51
2023/06/05 03:40:41;;;;;;;14.05;12.55;;;;;;;9.31;100.00;102185.59;5013667;28;20104;-48
2023/06/05 03:43:07;;;;;;;17.48;12.85;;;;;;;9.27;100.00;102178.63;5009029;28;20026;-50
2023/06/05 03:45:33;;;;;;;15.20;12.63;;;;;;;8.94;100.00;102139.38;5012875;28;20126;-50
2023/06/05 03:47:59;;;;;;;15.93;13.05;;;;;;;9.13;100.00;102156.81;4999287;28;20041;-49
2023/06/05 03:50:28;;;;;;;19.00;14.00;;;;;;;9.66;100.00;102260.75;4998602;28;20026;-50
2023/06/05 03:53:02;;;;;;;18.90;13.82;;;;;;;9.26;100.00;102184.75;5013619;28;20116;-51
2023/06/05 03:55:45;;;;;;;16.00;12.98;;;;;;;9.29;100.00;102186.47;5012543;28;20145;-53
2023/06/05 03:58:14;;;;;;;18.65;12.70;;;;;;;9.67;100.00;102254.59;5013586;28;20037;-51
2023/06/05 04:00:41;;;;;;;18.17;13.85;;;;;;;9.26;100.00;102179.50;5013668;28;20474;-49
2023/06/05 04:03:08;;;;;;;19.17;13.13;;;;;;;9.61;100.00;102240.59;5012570;28;20075;-49
2023/06/05 04:05:34;;;;;;;18.23;12.48;;;;;;;9.73;100.00;102259.81;5010952;28;20033;-49
2023/06/05 04:07:59;;;;;;;16.63;13.38;;;;;;;9.72;100.00;102253.69;4995741;28;20045;-51
2023/06/05 04:10:25;;;;;;;14.85;12.50;;;;;;;9.32;100.00;102182.09;5009975;28;20114;-50
2023/06/05 04:12:50;;;;;;;15.75;12.45;;;;;;;9.68;100.00;102244.06;5031708;28;20044;-49
2023/06/05 04:15:15;;;;;;;15.07;12.32;;;;;;;9.77;100.00;102261.56;5030764;28;20048;-53
2023/06/05 04:17:41;;;;;;;16.73;12.98;;;;;;;9.28;100.00;102176.88;5028113;28;20400;-53
2023/06/05 04:20:10;;;;;;;18.17;12.95;;;;;;;9.46;100.00;102192.50;5032866;28;20029;-53
2023/06/05 04:22:35;;;;;;;14.35;11.85;;;;;;;9.41;100.00;102189.91;5030958;28;20123;-51
2023/06/05 04:25:00;;;;;;;14.10;12.60;;;;;;;9.46;100.00;102192.50;5031906;28;20061;-53
2023/06/05 04:27:28;;;;;;;14.20;12.10;;;;;;;9.29;100.00;102147.94;5030840;28;20041;-49
2023/06/05 04:29:53;;;;;;;14.98;11.73;;;;;;;10.04;100.00;102262.22;5031235;28;20044;-52
2023/06/05 04:32:19;;;;;;;14.82;11.45;;;;;;;10.11;100.00;102274.44;5031458;28;20124;-51
2023/06/05 04:34:45;;;;;;;14.38;11.68;;;;;;;9.76;100.00;102200.19;5032698;28;20033;-52
2023/06/05 04:37:10;;;;;;;13.82;11.80;;;;;;;10.11;100.00;102250.78;5030837;28;20365;-50
2023/06/05 04:39:35;;;;;;;15.23;11.25;;;;;;;10.26;100.00;102262.97;5032718;28;20037;-50
2023/06/05 04:42:01;;;;;;;12.77;10.73;;;;;;;9.92;100.00;102190.44;5032923;28;20034;-51
2023/06/05 04:44:26;;;;;;;14.93;11.00;;;;;;;10.03;100.00;102199.97;5031374;28;20038;-53
2023/06/05 04:46:52;;;;;;;14.13;11.32;;;;;;;10.50;100.00;102262.75;5017831;28;20033;-53
2023/06/05 04:49:18;;;;;;;13.60;10.98;;;;;;;10.07;100.00;102190.28;5020439;28;20045;-54
2023/06/05 04:51:44;;;;;;;13.82;11.77;;;;;;;10.61;100.00;102274.03;5031978;28;20121;-54
2023/06/05 04:54:10;;;;;;;13.38;11.98;;;;;;;10.29;100.00;102198.91;5029699;28;20121;-51
2023/06/05 04:56:36;;;;;;;15.35;12.15;;;;;;;10.74;100.00;102269.50;5032264;28;20033;-53
2023/06/05 04:59:02;;;;;;;14.52;11.98;;;;;;;10.13;100.00;102158.69;5030781;28;20465;-50
2023/06/05 05:01:28;;;;;;;14.00;11.40;;;;;;;10.48;100.00;102190.78;5028454;28;20048;-50
2023/06/05 05:03:54;;;;;;;17.33;12.23;;;;;;;10.66;100.00;102211.66;5032127;28;20101;-53
2023/06/05 05:06:20;;;;;;;14.02;11.43;;;;;;;11.01;100.00;102271.84;5031142;28;20481;-51
2023/06/05 05:08:48;;;;;;;12.10;10.75;;;;;;;11.04;100.00;102268.31;5031140;28;20081;-50
2023/06/05 05:11:14;;;;;;;14.45;11.27;;;;;;;11.21;100.00;102271.59;5043864;28;20064;-49
2023/06/05 05:13:39;;;;;;;12.23;10.77;;;;;;;11.34;100.00;102274.97;5052115;28;20075;-48
2023/06/05 05:16:05;;;;;;;11.55;10.25;;;;;;;11.35;100.00;102267.06;5048008;28;20070;-51
2023/06/05 05:18:30;;;;;;;12.52;10.73;;;;;;;11.42;100.00;102276.63;5040992;28;20033;-51
2023/06/05 05:20:56;;;;;;;13.45;10.38;;;;;;;11.15;100.00;102195.25;5026317;28;20489;-50
2023/06/05 05:23:22;;;;;;;12.57;10.30;;;;;;;11.64;100.00;102269.28;5014590;28;20037;-50
2023/06/05 05:25:47;;;;;;;11.90;10.70;;;;;;;11.74;100.00;102269.16;5032325;28;20041;-52
2023/06/05 05:28:13;;;;;;;13.23;11.27;;;;;;;11.76;100.00;102272.63;5036228;28;20106;-51
2023/06/05 05:30:39;;;;;;;11.52;10.18;;;;;;;11.33;100.00;102197.63;5033005;28;20027;-51
2023/06/05 05:33:04;;;;;;;13.60;10.20;;;;;;;11.71;100.00;102249.88;5034232;28;20408;-52
2023/06/05 05:35:30;;;;;;;11.13;9.95;;;;;;;11.79;100.00;102251.50;5025065;28;20042;-53
2023/06/05 05:37:56;;;;;;;11.40;10.25;;;;;;;12.02;100.00;102269.63;5044536;28;20036;-51
2023/06/05 05:40:21;;;;;;;14.88;10.10;;;;;;;12.10;100.00;102267.75;5050330;28;20037;-52
2023/06/05 05:42:47;;;;;;;11.27;10.07;;;;;;;11.88;100.00;102215.34;5033073;28;20042;-52
2023/06/05 05:45:12;;;;;;;10.98;9.82;;;;;;;12.30;100.00;102254.19;5039806;28;20033;-50
2023/06/05 05:47:37;;;;;;;10.70;9.43;;;;;;;12.50;100.00;102270.56;5050390;28;20041;-48
2023/06/05 05:50:04;;;;;;;11.82;9.07;;;;;;;12.60;100.00;102251.03;5042579;28;20048;-51
2023/06/05 05:52:29;;;;;;;10.43;9.25;;;;;;;12.92;100.00;102263.63;5033884;28;20042;-53
2023/06/05 05:54:55;;;;;;;9.52;8.57;;;;;;;13.08;100.00;102270.38;5031939;28;20035;-52
2023/06/05 05:57:20;;;;;;;10.20;8.18;;;;;;;13.27;100.00;102263.81;5037913;28;20120;-52
2023/06/05 05:59:46;;;;;;;8.82;7.95;;;;;;;13.54;100.00;102268.50;5049794;28;20039;-50
2023/06/05 06:02:12;;;;;;;8.50;7.60;;;;;;;13.12;100.00;102191.88;5050048;28;20060;-52
2023/06/05 06:04:39;;;;;;;10.55;7.40;;;;;;;13.65;100.00;102285.94;5042424;28;20050;-52
2023/06/05 06:07:05;;;;;;;7.43;6.57;;;;;;;13.71;100.00;102281.38;5017573;28;20033;-51
2023/06/05 06:09:31;;;;;;;8.00;7.20;;;;;;;13.73;100.00;102283.97;5047364;28;20041;-53
2023/06/05 06:11:56;;;;;;;10.52;7.85;;;;;;;13.58;100.00;102241.97;5049019;28;20044;-51
2023/06/05 06:14:22;;;;;;;7.88;7.05;;;;;;;13.65;100.00;102300.03;5051271;28;20039;-53
2023/06/05 06:16:49;;;;;;;7.97;7.20;;;;;;;13.26;100.00;102219.75;5047997;28;20033;-50
2023/06/05 06:19:16;;;;;;;8.25;7.45;;;;;;;13.43;100.00;102230.84;5045065;28;20044;-53
2023/06/05 06:21:42;;;;;;;7.60;6.90;;;;;;;13.50;100.00;102263.31;5041488;28;20218;-53
2023/06/05 06:24:07;;;;;;;7.53;6.82;;;;;;;13.66;100.00;102270.00;5020984;28;20128;-51
2023/06/05 06:26:33;;;;;;;8.38;6.93;;;;;;;13.34;100.00;102212.53;5035121;28;20184;-53
2023/06/05 06:28:59;;;;;;;8.25;6.78;;;;;;;13.98;100.00;102293.13;5027307;28;20033;-49
2023/06/05 06:31:24;;;;;;;7.57;6.65;;;;;;;14.07;100.00;102282.28;5030708;28;20593;-54
2023/06/05 06:33:50;;;;;;;6.60;5.93;;;;;;;14.21;100.00;102317.28;5034873;28;20179;-50
2023/06/05 06:36:17;;;;;;;7.05;6.03;;;;;;;13.78;100.00;102234.44;5016425;28;20080;-53
2023/06/05 06:38:42;;;;;;;7.47;6.38;;;;;;;13.99;100.00;102300.13;5029958;28;20045;-52
2023/06/05 06:41:08;;;;;;;7.15;6.07;;;;;;;13.20;100.00;102176.72;5031246;28;20040;-51
2023/06/05 06:43:33;;;;;;;7.80;5.72;;;;;;;13.91;100.00;102315.34;5052479;28;20029;-54
2023/06/05 06:46:00;;;;;;;6.10;5.53;;;;;;;13.86;100.00;102306.63;5018942;28;20039;-54
2023/06/05 06:48:25;;;;;;;6.40;5.80;;;;;;;13.34;100.00;102195.78;5054554;28;20036;-50
2023/06/05 06:50:52;;;;;;;5.78;5.10;;;;;;;14.15;100.00;102308.59;5036920;28;20544;-53
2023/06/05 06:53:18;;;;;;;4.78;4.28;;;;;;;14.42;100.00;102308.81;5006820;28;20090;-52
2023/06/05 06:55:43;;;;;;;5.70;4.72;;;;;;;14.37;100.00;102312.50;5046573;28;20029;-53
2023/06/05 06:58:09;;;;;;;5.45;4.70;;;;;;;14.01;100.00;102250.66;5034892;28;20413;-54
2023/06/05 07:00:34;;;;;;;4.95;4.43;;;;;;;14.01;100.00;102250.66;5035263;28;20512;-52
2023/06/05 07:03:00;;;;;;;5.45;4.78;;;;;;;14.23;100.00;102318.09;5033471;28;20099;-51
2023/06/05 07:05:25;;;;;;;5.88;4.82;;;;;;;14.26;100.00;102322.44;5033515;28;20488;-53
2023/06/05 07:07:50;;;;;;;5.03;4.53;;;;;;;14.28;100.00;102328.56;5047596;28;20056;-52
2023/06/05 07:10:16;;;;;;;5.47;4.80;;;;;;;14.19;100.00;102323.50;5035674;28;20448;-53
2023/06/05 07:12:41;;;;;;;5.72;4.63;;;;;;;14.45;100.00;102324.63;5029239;28;20037;-50
2023/06/05 07:15:07;;;;;;;5.95;5.45;;;;;;;14.52;100.00;102328.00;5033569;28;20381;-51
2023/06/05 07:17:32;;;;;;;7.47;5.22;;;;;;;14.56;100.00;102321.75;5016301;28;20084;-51
2023/06/05 07:19:58;;;;;;;5.25;4.40;;;;;;;14.89;100.00;102328.78;5031820;28;20048;-49
2023/06/05 07:22:27;;;;;;;4.57;4.18;;;;;;;14.55;100.00;102262.56;5032383;28;20049;-52
2023/06/05 07:24:53;;;;;;;6.63;4.30;;;;;;;15.30;100.00;102340.03;5034303;28;20112;-50
2023/06/05 07:27:19;;;;;;;5.43;4.85;;;;;;;15.45;100.00;102334.31;5015762;28;20116;-51
2023/06/05 07:29:45;;;;;;;6.10;4.63;;;;;;;15.67;100.00;102343.44;5031647;28;20029;-50
2023/06/05 07:32:10;;;;;;;4.50;4.03;;;;;;;16.00;100.00;102341.50;5033662;28;20048;-55
2023/06/05 07:34:36;;;;;;;6.10;4.15;;;;;;;15.87;100.00;102337.50;5033282;28;20034;-50
2023/06/05 07:37:01;;;;;;;4.40;3.67;;;;;;;15.65;100.00;102277.09;5033543;28;20389;-54
2023/06/05 07:39:28;;;;;;;4.72;4.00;;;;;;;16.06;100.00;102280.25;5004290;28;20029;-48
2023/06/05 07:41:53;;;;;;;7.93;4.43;;;;;;;16.68;100.00;102344.63;5013631;28;20478;-51
2023/06/05 07:44:21;;;;;;;3.72;3.42;;;;;;;16.81;100.00;102341.50;5025467;28;20048;-53
2023/06/05 07:46:47;;;;;;;5.72;3.60;;;;;;;16.76;100.00;102354.09;5032795;28;20116;-49
2023/06/05 07:49:13;;;;;;;5.22;4.40;;;;;;;17.19;100.00;102328.66;5031586;28;20041;-55
2023/06/05 07:51:38;;;;;;;5.22;4.20;;;;;;;17.37;100.00;102304.88;5015827;28;20111;-50
2023/06/05 07:54:08;;;;;;;6.97;5.47;;;;;;;17.38;100.00;102280.00;5032976;28;20108;-53
2023/06/05 07:56:34;;;;;;;5.57;3.50;;;;;;;17.49;100.00;102292.03;5032840;28;20464;-54
2023/06/05 07:59:00;;;;;;;5.75;3.78;;;;;;;17.29;100.00;102272.38;5032971;28;20087;-52
2023/06/05 08:01:27;;;;;;;6.40;4.50;;;;;;;17.71;100.00;102324.94;5032024;28;20084;-54
2023/06/05 08:03:52;;;;;;;4.03;3.63;;;;;;;17.56;100.00;102280.25;5033495;28;20038;-50
2023/06/05 08:06:18;;;;;;;6.07;4.00;;;;;;;17.79;100.00;102280.22;5032844;28;20399;-54
2023/06/05 08:08:44;;;;;;;8.23;4.13;;;;;;;18.47;100.00;102354.75;5032858;28;20034;-53
2023/06/05 08:11:10;;;;;;;3.83;3.53;;;;;;;18.06;100.00;102359.06;5033053;28;20449;-53
2023/06/05 08:13:37;;;;;;;4.53;4.10;;;;;;;17.59;100.00;102290.78;5032821;28;20072;-54
2023/06/05 08:16:03;;;;;;;3.95;3.58;;;;;;;18.02;100.00;102282.84;5015490;28;20385;-52
2023/06/05 08:18:28;;;;;;;5.38;4.20;;;;;;;17.92;100.00;102281.50;5031996;28;20039;-52
2023/06/05 08:20:53;;;;;;;3.85;3.53;;;;;;;18.15;100.00;102342.72;5015515;28;20088;-54
2023/06/05 08:23:19;;;;;;;7.80;3.90;;;;;;;18.71;100.00;102352.88;5032824;28;20099;-52
2023/06/05 08:25:44;;;;;;;4.20;3.33;;;;;;;18.62;100.00;102338.16;5015111;28;20042;-52
2023/06/05 08:28:09;;;;;;;3.70;3.33;;;;;;;18.93;100.00;102285.19;5032654;28;20068;-50
2023/06/05 08:30:35;;;;;;;5.95;3.40;;;;;;;19.23;100.00;102346.16;5015090;28;20072;-55
2023/06/05 08:33:00;;;;;;;5.32;3.22;;;;;;;19.64;100.00;102346.03;5031324;28;20044;-53
2023/06/05 08:35:25;;;;;;;7.72;3.20;;;;;;;19.32;100.00;102295.00;5031522;28;20033;-52
2023/06/05 08:37:51;;;;;;;3.80;3.40;;;;;;;19.36;100.00;102304.59;5014983;28;20044;-52
2023/06/05 08:40:18;;;;;;;3.90;3.60;;;;;;;19.30;100.00;102340.47;5032675;28;20041;-51
2023/06/05 08:42:43;;;;;;;3.90;3.53;;;;;;;18.87;100.00;102261.44;5032052;28;20503;-53
2023/06/05 08:45:09;;;;;;;5.32;3.50;;;;;;;18.83;100.00;102262.50;5032446;28;20037;-51
2023/06/05 08:47:38;;;;;;;5.72;3.78;;;;;;;19.10;100.00;102343.16;5032662;28;20427;-55
2023/06/05 08:50:07;;;;;;;4.38;3.50;;;;;;;18.99;100.00;102324.94;5013003;28;20053;-52
2023/06/05 08:52:35;;;;;;;3.83;3.42;;;;;;;18.93;100.00;102327.00;5030969;28;20021;-53
2023/06/05 08:55:02;;;;;;;4.25;3.13;;;;;;;19.18;100.00;102333.00;5031199;28;20033;-54
2023/06/05 08:57:28;;;;;;;3.55;3.25;;;;;;;19.42;100.00;102307.91;5014662;28;20033;-50
2023/06/05 08:59:54;;;;;;;3.83;3.50;;;;;;;19.68;100.00;102279.97;5032719;28;20124;-51
2023/06/05 09:02:19;;;;;;;4.22;3.92;;;;;;;20.46;100.00;102342.06;5014526;28;20557;-52
2023/06/05 09:04:44;;;;;;;4.00;3.58;;;;;;;20.83;100.00;102333.06;5014815;28;20537;-57
2023/06/05 09:07:11;;;;;;;3.70;3.40;;;;;;;20.65;100.00;102285.84;5031217;28;20087;-55
2023/06/05 09:09:36;;;;;;;3.83;3.47;;;;;;;21.15;100.00;102304.63;5030699;28;20033;-56
2023/06/05 09:12:04;;;;;;;3.63;3.30;;;;;;;21.44;100.00;102340.56;5023157;28;20458;-52
2023/06/05 09:14:31;;;;;;;4.57;3.78;;;;;;;20.90;100.00;102282.78;5013508;28;20046;-55
2023/06/05 09:16:56;;;;;;;4.10;3.80;;;;;;;21.26;100.00;102329.91;5029669;28;20033;-54
2023/06/05 09:19:26;;;;;;;3.83;3.35;;;;;;;21.51;100.00;102333.94;5030596;28;20036;-51
2023/06/05 09:21:54;;;;;;;5.53;4.00;;;;;;;21.20;100.00;102324.88;5014452;28;20382;-51
2023/06/05 09:24:21;;;;;;;3.97;3.55;;;;;;;21.16;100.00;102309.91;5030917;28;20491;-54
2023/06/05 09:26:46;;;;;;;4.95;3.78;;;;;;;21.14;100.00;102340.38;5014558;28;20035;-52
2023/06/05 09:29:11;;;;;;;4.88;4.47;;;;;;;21.31;100.00;102335.88;5031922;28;20033;-55
2023/06/05 09:31:42;;;;;;;4.15;3.50;;;;;;;21.89;100.00;102331.84;5031642;28;20045;-55
2023/06/05 09:34:07;;;;;;;4.13;3.72;;;;;;;21.59;100.00;102268.28;5014435;28;20029;-57
2023/06/05 09:36:34;;;;;;;4.93;4.35;;;;;;;21.72;100.00;102330.94;5030399;28;20036;-52
2023/06/05 09:39:16;;;;;;;4.82;3.58;;;;;;;21.83;100.00;102314.28;5031568;28;20033;-52
2023/06/05 09:41:46;;;;;;;4.93;4.43;;;;;;;22.01;100.00;102312.41;5013838;28;20473;-51
2023/06/05 09:44:12;;;;;;;6.40;3.70;;;;;;;21.78;100.00;102276.13;5031984;28;20058;-53
2023/06/05 09:46:51;;;;;;;4.82;3.95;;;;;;;21.78;100.00;102268.94;5014074;28;20029;-53
2023/06/05 09:49:17;;;;;;;4.47;4.05;;;;;;;21.83;100.00;102257.97;5031614;28;20029;-55
2023/06/05 09:51:43;;;;;;;7.05;4.18;;;;;;;21.53;100.00;102327.56;5031579;28;20061;-55
2023/06/05 09:54:09;;;;;;;5.55;4.60;;;;;;;21.78;100.00;102327.03;5031587;28;20099;-53
2023/06/05 09:56:35;;;;;;;7.28;4.30;;;;;;;21.14;100.00;102249.34;5030654;28;20084;-50
2023/06/05 09:59:01;;;;;;;4.03;3.72;;;;;;;22.08;100.00;102306.59;5014092;28;20265;-50
2023/06/05 10:01:28;;;;;;;4.88;3.92;;;;;;;22.36;100.00;102321.94;5015829;28;20119;-55
2023/06/05 10:03:58;;;;;;;5.88;4.25;;;;;;;22.18;100.00;102221.13;5035100;28;20029;-50
2023/06/05 10:06:27;;;;;;;4.68;4.25;;;;;;;22.41;100.00;102251.00;5034946;28;20449;-50
2023/06/05 10:08:55;;;;;;;4.90;4.28;;;;;;;22.14;100.00;102254.41;5035341;28;20076;-54
2023/06/05 10:11:22;;;;;;;6.78;4.10;;;;;;;22.71;100.00;102319.91;5034461;28;20053;-50
2023/06/05 10:13:49;;;;;;;5.90;4.40;;;;;;;22.93;100.00;102270.19;5034218;28;20037;-52
2023/06/05 10:16:18;;;;;;;6.35;5.22;;;;;;;22.88;100.00;102309.88;5021908;28;20037;-55
2023/06/05 10:18:47;;;;;;;5.18;4.38;;;;;;;22.78;100.00;102315.91;5008998;28;20048;-56
2023/06/05 10:21:16;;;;;;;5.25;4.05;;;;;;;23.33;100.00;102299.94;5023881;28;20034;-54
2023/06/05 10:23:48;;;;;;;4.60;4.18;;;;;;;24.01;100.00;102320.63;5034804;28;20030;-56
2023/06/05 10:26:37;;;;;;;6.38;4.43;;;;;;;23.47;100.00;102303.53;5033434;28;20035;-56
2023/06/05 10:29:27;;;;;;;6.95;4.75;;;;;;;22.77;100.00;102304.28;5016961;28;20429;-54
2023/06/05 10:32:19;;;;;;;6.50;4.72;;;;;;;22.89;100.00;102313.44;5034284;28;20025;-53
2023/06/05 10:35:04;;;;;;;6.05;4.03;;;;;;;23.30;100.00;102316.25;5032078;28;20026;-55
2023/06/05 10:38:00;;;;;;;5.20;4.70;;;;;;;24.09;100.00;102307.53;5034516;28;20048;-57
2023/06/05 10:40:25;;;;;;;5.72;5.13;;;;;;;22.63;100.00;102236.25;5033824;28;20516;-56
2023/06/05 10:42:51;;;;;;;5.65;5.15;;;;;;;21.91;100.00;102233.44;5016141;28;20044;-55
2023/06/05 10:45:32;;;;;;;5.95;5.10;;;;;;;22.21;100.00;102298.72;5017004;28;20026;-57
2023/06/05 10:47:57;;;;;;;;;;;;;;;22.91;100.00;102300.78;5017256;28;20021;-53
2023/06/05 10:50:27;;;;;;;7.07;5.30;;;;;;;22.03;100.00;102238.09;5034305;28;20296;-53
2023/06/05 10:52:54;;;;;;;8.35;5.65;;;;;;;22.75;100.00;102294.59;5034571;28;20033;-55
2023/06/05 10:55:21;;;;;;;6.45;5.30;;;;;;;22.89;100.00;102243.63;5034158;28;20029;-55
2023/06/05 10:58:01;;;;;;;7.13;5.55;;;;;;;23.71;100.00;102298.41;5034114;28;20186;-54
2023/06/05 11:00:33;;;;;;;5.40;4.78;;;;;;;23.32;100.00;102293.69;5034043;28;20025;-56
2023/06/05 11:02:59;;;;;;;7.28;5.60;;;;;;;23.18;100.00;102285.66;5026850;28;20067;-55
2023/06/05 11:05:24;;;;;;;8.15;5.88;;;;;;;22.92;100.00;102236.25;5016271;28;20057;-55
2023/06/05 11:08:13;;;;;;;5.85;5.25;;;;;;;23.72;100.00;102285.84;5015885;28;20071;-53
2023/06/05 11:11:12;;;;;;;7.05;5.30;;;;;;;23.95;100.00;102306.72;5008465;28;20042;-53